Time;durP1;ratioP1;P1;durP2;ratioP2;P2;SDS_P1;SDS_P2;PMS_P1;PMS_P2;Temp;Humidity;BMP_temperature;BMP_pressure;BME280_temperature;BME280_humidity;BME280_pressure;Samples;Min_cycle;Max_cycle;Signal;HPM_P1;HPM_P2
2023/01/03 00:01:18;;;;;;;11.27;4.93;;;3.40;99.90;;;;;;5067411;28;20294;-41
2023/01/03 00:03:43;;;;;;;10.60;5.53;;;3.40;99.90;;;;;;5066117;28;20128;-44
2023/01/03 00:06:20;;;;;;;12.65;5.50;;;3.30;99.90;;;;;;5064660;28;20119;-41
2023/01/03 00:08:46;;;;;;;14.40;4.80;;;3.30;99.90;;;;;;5058975;28;20133;-43
2023/01/03 00:12:22;;;;;;;10.75;5.30;;;3.30;99.90;;;;;;5066659;28;20050;-42
2023/01/03 00:14:14;;;;;;;11.27;5.30;;;3.30;99.90;;;;;;5068243;28;20167;-42
2023/01/03 00:16:40;;;;;;;11.93;5.25;;;3.30;99.90;;;;;;5070883;28;20047;-45
2023/01/03 00:19:12;;;;;;;13.43;5.65;;;3.30;99.90;;;;;;5070687;28;20020;-44
2023/01/03 00:21:38;;;;;;;12.33;5.60;;;3.30;99.90;;;;;;5055370;28;20186;-44
2023/01/03 00:24:04;;;;;;;12.07;5.60;;;3.30;99.90;;;;;;5072080;28;20047;-41
2023/01/03 00:26:30;;;;;;;10.30;5.25;;;3.30;99.90;;;;;;5076970;28;20052;-42
2023/01/03 00:28:56;;;;;;;12.60;5.85;;;3.30;99.90;;;;;;5051591;28;20185;-46
2023/01/03 00:31:22;;;;;;;13.60;6.00;;;3.30;99.90;;;;;;5063054;28;20127;-42
2023/01/03 00:33:48;;;;;;;12.57;6.10;;;3.30;99.90;;;;;;5064575;28;20497;-40
2023/01/03 00:36:13;;;;;;;14.15;6.65;;;3.30;99.90;;;;;;5061010;28;20044;-40
2023/01/03 00:38:39;;;;;;;18.83;7.15;;;3.40;99.90;;;;;;5069686;28;20028;-43
2023/01/03 00:41:13;;;;;;;10.82;6.15;;;3.40;99.90;;;;;;5065108;28;20107;-46
2023/01/03 00:43:41;;;;;;;18.35;6.25;;;3.40;99.90;;;;;;5064858;28;20033;-45
2023/01/03 00:46:08;;;;;;;18.40;7.20;;;3.40;99.90;;;;;;5064691;28;20044;-43
2023/01/03 00:48:34;;;;;;;18.65;7.05;;;3.40;99.90;;;;;;5069829;28;20474;-42
2023/01/03 00:51:08;;;;;;;15.48;7.32;;;3.40;99.90;;;;;;5070347;28;20501;-40
2023/01/03 00:53:35;;;;;;;20.60;7.22;;;3.40;99.90;;;;;;5065020;28;20060;-42
2023/01/03 00:56:14;;;;;;;17.02;7.13;;;3.30;99.90;;;;;;5049678;28;20045;-41
2023/01/03 00:58:40;;;;;;;11.73;5.88;;;3.30;99.90;;;;;;5063535;28;20089;-40
2023/01/03 01:01:13;;;;;;;13.80;6.97;;;3.30;99.90;;;;;;5068552;28;20033;-44
2023/01/03 01:03:43;;;;;;;14.43;6.00;;;3.30;99.90;;;;;;5078951;28;20037;-43
2023/01/03 01:06:14;;;;;;;14.27;6.47;;;3.30;99.90;;;;;;5070691;28;20036;-44
2023/01/03 01:08:40;;;;;;;14.30;6.35;;;3.20;99.90;;;;;;5065156;28;20047;-46
2023/01/03 01:11:06;;;;;;;15.45;7.35;;;3.20;99.90;;;;;;5065024;28;20040;-46
2023/01/03 01:13:33;;;;;;;18.25;7.10;;;3.10;99.90;;;;;;5044022;28;20105;-40
2023/01/03 01:16:04;;;;;;;16.35;7.63;;;3.10;99.90;;;;;;5040116;28;20043;-44
2023/01/03 01:18:30;;;;;;;16.90;7.13;;;3.10;99.90;;;;;;5057215;28;20386;-40
2023/01/03 01:20:56;;;;;;;15.20;7.00;;;3.10;99.90;;;;;;5061283;28;20485;-43
2023/01/03 01:23:22;;;;;;;18.55;7.80;;;3.00;99.90;;;;;;5057461;28;20076;-42
2023/01/03 01:25:47;;;;;;;18.67;7.90;;;3.00;99.90;;;;;;5067064;28;20493;-41
2023/01/03 01:28:13;;;;;;;15.88;7.63;;;3.00;99.90;;;;;;5065931;28;20037;-44
2023/01/03 01:30:39;;;;;;;22.63;9.32;;;3.00;99.90;;;;;;5066550;28;20404;-41
2023/01/03 01:33:04;;;;;;;17.73;8.60;;;3.00;99.90;;;;;;5064943;28;20432;-41
2023/01/03 01:35:31;;;;;;;19.05;8.73;;;3.00;99.90;;;;;;5069077;28;20068;-38
2023/01/03 01:37:56;;;;;;;14.30;7.35;;;3.00;99.90;;;;;;5062167;28;20033;-44
2023/01/03 01:40:22;;;;;;;18.25;9.02;;;2.90;99.90;;;;;;5044504;28;20520;-40
2023/01/03 01:45:34;;;;;;;18.67;8.20;;;2.90;99.90;;;;;;5060085;28;20037;-39
2023/01/03 01:48:05;;;;;;;16.75;8.15;;;2.90;99.90;;;;;;5061874;28;20041;-41
2023/01/03 01:50:45;;;;;;;17.30;8.18;;;2.90;99.90;;;;;;5056685;28;20057;-41
2023/01/03 01:53:18;;;;;;;19.52;9.13;;;2.90;99.90;;;;;;5057073;28;20106;-42
2023/01/03 01:55:47;;;;;;;22.45;9.48;;;2.90;99.90;;;;;;5053966;28;20046;-42
2023/01/03 01:58:14;;;;;;;23.27;9.75;;;2.90;99.90;;;;;;5055628;28;20044;-43
2023/01/03 02:00:42;;;;;;;20.92;9.27;;;2.90;99.90;;;;;;5060877;28;20036;-41
2023/01/03 02:03:08;;;;;;;24.40;9.48;;;2.90;99.90;;;;;;5058624;28;20501;-39
2023/01/03 02:05:36;;;;;;;25.83;9.15;;;2.90;99.90;;;;;;5063766;28;20123;-40
2023/01/03 02:08:03;;;;;;;26.10;11.32;;;2.90;99.90;;;;;;5060852;28;20074;-43
2023/01/03 02:10:41;;;;;;;23.85;9.65;;;2.80;99.90;;;;;;5057367;28;20101;-43
2023/01/03 02:13:23;;;;;;;22.90;10.32;;;2.80;99.90;;;;;;5058550;28;20538;-41
2023/01/03 02:15:48;;;;;;;23.88;10.35;;;2.80;99.90;;;;;;5042102;28;20097;-40
2023/01/03 02:18:48;;;;;;;21.83;9.13;;;2.80;99.90;;;;;;5061082;28;20062;-42
2023/01/03 02:21:22;;;;;;;20.20;9.38;;;2.80;99.90;;;;;;5058990;28;20170;-43
2023/01/03 02:24:11;;;;;;;23.23;9.70;;;2.80;99.90;;;;;;5054379;28;20048;-38
2023/01/03 02:26:46;;;;;;;19.73;10.02;;;2.80;99.90;;;;;;5060342;28;20075;-41
2023/01/03 02:29:41;;;;;;;21.33;10.40;;;2.80;99.90;;;;;;5056370;28;20888;-42
2023/01/03 02:32:18;;;;;;;20.95;10.23;;;2.80;99.90;;;;;;5060681;28;20083;-43
2023/01/03 02:34:52;;;;;;;24.30;10.68;;;2.70;99.90;;;;;;5059877;28;20056;-43
2023/01/03 02:37:27;;;;;;;23.08;10.45;;;2.70;99.90;;;;;;5065958;28;20125;-40
2023/01/03 02:39:57;;;;;;;24.50;10.85;;;2.70;99.90;;;;;;5067938;28;20045;-43
2023/01/03 02:43:00;;;;;;;24.65;10.65;;;2.70;99.90;;;;;;5071725;28;20671;-40
2023/01/03 02:45:57;;;;;;;23.85;11.82;;;2.60;99.90;;;;;;5063860;28;20028;-40
2023/01/03 02:48:32;;;;;;;19.45;9.75;;;2.60;99.90;;;;;;5068000;28;20058;-44
2023/01/03 02:51:04;;;;;;;22.63;10.23;;;2.60;99.90;;;;;;5071840;28;20441;-44
2023/01/03 02:53:40;;;;;;;19.50;9.87;;;2.60;99.90;;;;;;5062021;28;20148;-42
2023/01/03 02:56:12;;;;;;;21.33;10.55;;;2.60;99.90;;;;;;5067359;28;20302;-40
2023/01/03 02:58:42;;;;;;;21.02;9.02;;;2.50;99.90;;;;;;5069587;28;20047;-42
2023/01/03 03:01:11;;;;;;;22.50;10.25;;;2.60;99.90;;;;;;5074221;28;20055;-44
2023/01/03 03:03:38;;;;;;;26.27;11.40;;;2.50;99.90;;;;;;5051503;28;20040;-42
2023/01/03 03:06:13;;;;;;;19.60;10.60;;;2.60;99.90;;;;;;5049311;28;20451;-40
2023/01/03 03:08:39;;;;;;;19.40;9.68;;;2.50;99.90;;;;;;5066272;28;20032;-40
2023/01/03 03:13:54;;;;;;;19.42;9.50;;;2.50;99.90;;;;;;5070755;28;20563;-40
2023/01/03 03:16:46;;;;;;;17.77;9.00;;;2.50;99.90;;;;;;5068531;28;20058;-38
2023/01/03 03:24:48;;;;;;;16.30;8.43;;;2.50;99.90;;;;;;5065339;28;20094;-42
2023/01/03 03:25:08;;;;;;;16.63;7.60;;;2.50;99.90;;;;;;5067916;28;20040;-45
2023/01/03 03:30:26;;;;;;;15.98;8.02;;;2.40;99.90;;;;;;5038185;28;20509;-42
2023/01/03 03:32:57;;;;;;;16.70;8.30;;;2.40;99.90;;;;;;5070828;28;20068;-47
2023/01/03 03:35:24;;;;;;;19.48;8.45;;;2.40;99.90;;;;;;5061364;28;20092;-39
2023/01/03 03:37:54;;;;;;;16.63;8.80;;;2.40;99.90;;;;;;5062985;28;20092;-44
2023/01/03 03:46:58;;;;;;;15.57;7.68;;;2.30;99.90;;;;;;4963904;28;20060;-41
2023/01/03 03:49:36;;;;;;;20.48;9.38;;;2.30;99.90;;;;;;4967509;28;20057;-44
2023/01/03 03:52:09;;;;;;;18.48;9.18;;;2.30;99.90;;;;;;5032707;28;20552;-41
2023/01/03 03:54:38;;;;;;;17.73;8.23;;;2.30;99.90;;;;;;5065106;28;20044;-43
2023/01/03 03:57:14;;;;;;;17.17;7.60;;;2.20;99.90;;;;;;5065228;28;20549;-40
2023/01/03 03:59:43;;;;;;;19.98;8.75;;;2.20;99.90;;;;;;5064018;28;20044;-43
2023/01/03 04:02:11;;;;;;;17.27;9.10;;;2.20;99.90;;;;;;5073323;28;20040;-43
2023/01/03 04:04:43;;;;;;;20.85;8.70;;;2.20;99.90;;;;;;5064058;28;20512;-41
2023/01/03 04:07:09;;;;;;;20.02;9.02;;;2.20;99.90;;;;;;5071225;28;20078;-40
2023/01/03 04:09:34;;;;;;;20.08;9.35;;;2.20;99.90;;;;;;5070309;28;20125;-41
2023/01/03 04:12:00;;;;;;;18.58;8.82;;;2.20;99.90;;;;;;5065955;28;20041;-48
2023/01/03 04:14:26;;;;;;;14.88;7.35;;;2.20;99.90;;;;;;5065008;28;20033;-44
2023/01/03 04:16:51;;;;;;;17.75;8.45;;;2.20;99.90;;;;;;5060274;28;20429;-39
2023/01/03 04:19:17;;;;;;;20.98;9.40;;;2.20;99.90;;;;;;5066117;28;20059;-44
2023/01/03 04:21:43;;;;;;;20.67;9.05;;;2.20;99.90;;;;;;5065805;28;20040;-42
2023/01/03 04:24:08;;;;;;;21.65;8.95;;;2.20;99.90;;;;;;5064036;28;20505;-42
2023/01/03 04:26:34;;;;;;;19.63;9.30;;;2.30;99.90;;;;;;5069410;28;20201;-40
2023/01/03 04:29:00;;;;;;;18.23;9.20;;;2.30;99.90;;;;;;5069426;28;20036;-43
2023/01/03 04:31:25;;;;;;;23.20;9.35;;;2.30;99.90;;;;;;5065011;28;20139;-42
2023/01/03 04:33:52;;;;;;;17.65;8.35;;;2.30;99.90;;;;;;5046696;28;20044;-42
2023/01/03 04:36:19;;;;;;;20.42;9.60;;;2.30;99.90;;;;;;5045868;28;20120;-43
2023/01/03 04:38:44;;;;;;;19.02;8.57;;;2.30;99.90;;;;;;5071017;28;20049;-40
2023/01/03 04:41:10;;;;;;;17.88;8.68;;;2.20;99.90;;;;;;5068578;28;20486;-43
2023/01/03 04:46:21;;;;;;;19.48;9.68;;;2.20;99.90;;;;;;5067751;28;20091;-43
2023/01/03 04:48:47;;;;;;;18.63;9.20;;;2.20;99.90;;;;;;5070043;28;20036;-42
2023/01/03 04:51:12;;;;;;;18.15;9.48;;;2.20;99.90;;;;;;5048224;28;20043;-40
2023/01/03 04:53:38;;;;;;;20.40;9.90;;;2.20;99.90;;;;;;5065933;28;20051;-38
2023/01/03 04:56:04;;;;;;;20.02;9.43;;;2.20;99.90;;;;;;5071404;28;20063;-43
2023/01/03 04:58:30;;;;;;;16.67;8.57;;;2.20;99.90;;;;;;5071695;28;20043;-42
2023/01/03 05:01:03;;;;;;;20.60;9.60;;;2.20;99.90;;;;;;5071070;28;20024;-44
2023/01/03 05:03:30;;;;;;;19.88;8.52;;;2.20;99.90;;;;;;5068301;28;20703;-43
2023/01/03 05:06:05;;;;;;;20.38;9.48;;;2.20;99.90;;;;;;5066166;28;20367;-47
2023/01/03 05:08:30;;;;;;;19.38;9.48;;;2.20;99.90;;;;;;5074695;28;20040;-40
2023/01/03 05:10:56;;;;;;;16.25;8.35;;;2.20;99.90;;;;;;5050959;28;20044;-42
2023/01/03 05:13:22;;;;;;;17.88;8.35;;;2.20;99.90;;;;;;5065413;28;20045;-39
2023/01/03 05:15:48;;;;;;;17.13;8.52;;;2.20;99.90;;;;;;5063954;28;20128;-43
2023/01/03 05:18:13;;;;;;;17.17;8.32;;;2.20;99.90;;;;;;5070885;28;20037;-42
2023/01/03 05:26:14;;;;;;;16.88;7.85;;;2.20;99.90;;;;;;5068271;28;20453;-42
2023/01/03 05:28:42;;;;;;;16.00;9.07;;;2.10;99.90;;;;;;5071961;28;20048;-41
2023/01/03 05:31:08;;;;;;;17.15;8.35;;;2.10;99.90;;;;;;5070484;28;20509;-44
2023/01/03 05:33:36;;;;;;;15.90;7.80;;;2.10;99.90;;;;;;5069492;28;20033;-41
2023/01/03 05:36:01;;;;;;;18.92;9.50;;;2.10;99.90;;;;;;5070282;28;20032;-43
2023/01/03 05:38:27;;;;;;;15.57;8.23;;;2.00;99.90;;;;;;5068883;28;20490;-39
2023/01/03 05:40:53;;;;;;;16.45;8.95;;;2.00;99.90;;;;;;5064893;28;20460;-40
2023/01/03 05:43:18;;;;;;;18.05;8.95;;;2.00;99.90;;;;;;5069967;28;20064;-42
2023/01/03 05:45:51;;;;;;;15.48;7.97;;;2.00;99.90;;;;;;5034476;28;20475;-44
2023/01/03 05:48:17;;;;;;;;;;;2.00;99.90;;;;;;5068790;28;20044;-40
2023/01/03 05:50:44;;;;;;;14.73;8.07;;;2.00;99.90;;;;;;5063898;28;21175;-40
2023/01/03 05:53:09;;;;;;;18.08;8.43;;;2.00;99.90;;;;;;5073098;28;20048;-43
2023/01/03 05:55:38;;;;;;;19.23;9.07;;;2.00;99.90;;;;;;5064891;28;20527;-46
2023/01/03 05:58:05;;;;;;;19.48;10.50;;;2.00;99.90;;;;;;5069637;28;20050;-40
2023/01/03 06:00:31;;;;;;;18.02;9.82;;;2.00;99.90;;;;;;5077880;28;20036;-42
2023/01/03 06:02:57;;;;;;;16.92;9.20;;;2.00;99.90;;;;;;5070275;28;20093;-42
2023/01/03 06:05:23;;;;;;;19.95;10.05;;;2.00;99.90;;;;;;5066640;28;20036;-46
2023/01/03 06:07:48;;;;;;;22.10;10.80;;;2.00;99.90;;;;;;5070998;28;20028;-43
2023/01/03 06:10:14;;;;;;;21.90;9.75;;;2.00;99.90;;;;;;5071474;28;20112;-42
2023/01/03 06:12:40;;;;;;;23.80;10.68;;;2.10;99.90;;;;;;5061617;28;20134;-41
2023/01/03 06:15:06;;;;;;;37.17;12.73;;;2.00;99.90;;;;;;5072685;28;20040;-39
2023/01/03 06:20:16;;;;;;;47.10;11.55;;;2.10;99.90;;;;;;5071277;28;20528;-43
2023/01/03 06:22:42;;;;;;;73.10;13.32;;;2.00;99.90;;;;;;5067963;28;20036;-43
2023/01/03 06:25:09;;;;;;;52.83;11.68;;;2.00;99.90;;;;;;5074725;28;20032;-42
2023/01/03 06:27:35;;;;;;;70.95;11.35;;;2.00;99.90;;;;;;5059722;28;20045;-42
2023/01/03 06:30:01;;;;;;;48.17;9.32;;;2.00;99.90;;;;;;5068357;28;20131;-44
2023/01/03 06:32:27;;;;;;;52.05;8.48;;;2.00;99.90;;;;;;5073071;28;20051;-41
2023/01/03 06:34:52;;;;;;;62.60;12.65;;;1.90;99.90;;;;;;5062781;28;20108;-41
2023/01/03 06:37:18;;;;;;;92.18;11.63;;;1.80;99.90;;;;;;5070776;28;20028;-43
2023/01/03 06:39:44;;;;;;;30.08;6.53;;;1.80;99.90;;;;;;5066258;28;20044;-43
2023/01/03 06:53:23;;;;;;;150.82;16.45;;;1.90;99.90;;;;;;5061104;28;20055;-39
2023/01/03 06:55:48;;;;;;;109.90;15.15;;;2.00;99.90;;;;;;5069904;28;20508;-45
2023/01/03 06:58:14;;;;;;;54.38;9.77;;;2.00;99.90;;;;;;5044089;28;20032;-44
2023/01/03 07:00:42;;;;;;;93.45;14.10;;;2.10;99.90;;;;;;5064981;28;20401;-43
2023/01/03 07:03:08;;;;;;;83.40;13.68;;;2.20;99.90;;;;;;5065772;28;20107;-42
2023/01/03 07:05:33;;;;;;;130.80;17.75;;;2.30;99.90;;;;;;5061794;28;20181;-44
2023/01/03 07:07:59;;;;;;;142.35;17.55;;;2.50;99.90;;;;;;5068048;28;20043;-43
2023/01/03 07:10:25;;;;;;;100.22;16.85;;;2.60;99.90;;;;;;5066892;28;20040;-43
2023/01/03 07:15:35;;;;;;;113.25;17.98;;;2.80;99.90;;;;;;5062917;28;20135;-42
2023/01/03 07:18:00;;;;;;;107.00;19.52;;;2.90;99.90;;;;;;5068350;28;20186;-42
2023/01/03 07:20:26;;;;;;;69.63;17.20;;;3.00;99.90;;;;;;5067957;28;20048;-41
2023/01/03 07:22:52;;;;;;;79.30;17.80;;;3.10;99.90;;;;;;5071506;28;20148;-42
2023/01/03 07:25:18;;;;;;;91.25;19.02;;;3.20;99.90;;;;;;5059365;28;21071;-42
2023/01/03 07:27:44;;;;;;;72.55;17.75;;;3.30;99.90;;;;;;5064544;28;20060;-39
2023/01/03 07:30:10;;;;;;;73.53;18.38;;;3.30;99.90;;;;;;5065871;28;20037;-43
2023/01/03 07:32:35;;;;;;;57.70;16.63;;;3.40;99.90;;;;;;5070721;28;20079;-40
2023/01/03 07:35:01;;;;;;;60.72;16.95;;;3.50;99.90;;;;;;5066058;28;20440;-40
2023/01/03 07:37:27;;;;;;;45.90;14.93;;;3.50;99.90;;;;;;5066782;28;20483;-40
2023/01/03 07:39:52;;;;;;;52.65;18.25;;;3.50;99.90;;;;;;5067290;28;20041;-44
2023/01/03 07:45:07;;;;;;;55.97;16.75;;;3.70;99.90;;;;;;5035887;28;20051;-39
2023/01/03 07:47:33;;;;;;;46.08;16.30;;;3.80;99.90;;;;;;5063949;28;20059;-43
2023/01/03 07:49:59;;;;;;;51.05;17.52;;;3.80;99.90;;;;;;5070092;28;20115;-41
2023/01/03 07:52:26;;;;;;;44.45;15.23;;;3.80;99.90;;;;;;5058232;28;20421;-43
2023/01/03 07:54:51;;;;;;;49.63;16.48;;;3.90;99.90;;;;;;5062321;28;20071;-40
2023/01/03 07:57:17;;;;;;;51.35;18.65;;;4.00;99.90;;;;;;5063313;28;20036;-39
2023/01/03 07:59:43;;;;;;;52.35;17.58;;;4.00;99.90;;;;;;5059506;28;20094;-43
2023/01/03 08:02:08;;;;;;;42.80;16.83;;;4.10;99.90;;;;;;5064077;28;20028;-39
2023/01/03 08:04:34;;;;;;;52.92;17.10;;;4.10;99.90;;;;;;5064672;28;20028;-43
2023/01/03 08:06:59;;;;;;;51.17;16.95;;;4.10;99.90;;;;;;5065067;28;20115;-42
2023/01/03 08:14:54;;;;;;;50.97;17.92;;;4.20;99.90;;;;;;5062977;28;20524;-40
2023/01/03 08:17:19;;;;;;;48.97;17.00;;;4.20;99.90;;;;;;5062964;28;20116;-42
2023/01/03 08:19:45;;;;;;;40.35;16.65;;;4.20;99.90;;;;;;5048185;28;20087;-41
2023/01/03 08:22:11;;;;;;;48.97;17.52;;;4.30;99.90;;;;;;5065728;28;20063;-41
2023/01/03 08:24:36;;;;;;;43.67;17.60;;;4.30;99.90;;;;;;5059296;28;20090;-41
2023/01/03 08:27:03;;;;;;;47.22;17.38;;;4.30;99.90;;;;;;5058355;28;20045;-43
2023/01/03 08:29:29;;;;;;;46.85;17.52;;;4.30;99.90;;;;;;5061395;28;20037;-41
2023/01/03 08:31:57;;;;;;;40.08;17.25;;;4.40;99.90;;;;;;5047505;28;20063;-42
2023/01/03 08:34:25;;;;;;;44.22;16.48;;;4.30;99.90;;;;;;5059449;28;20122;-42
2023/01/03 08:36:59;;;;;;;52.22;18.85;;;4.30;99.90;;;;;;5066366;28;20036;-43
2023/01/03 08:39:32;;;;;;;46.20;18.00;;;4.30;99.90;;;;;;5065843;28;20044;-39
2023/01/03 08:41:59;;;;;;;;;;;4.30;99.90;;;;;;5067106;28;20075;-43
2023/01/03 08:44:25;;;;;;;39.25;15.77;;;4.30;99.90;;;;;;5062054;28;19924;-44
2023/01/03 08:46:54;;;;;;;43.70;17.98;;;4.30;99.90;;;;;;5062026;28;20037;-42
2023/01/03 08:49:20;;;;;;;46.05;17.85;;;4.30;99.90;;;;;;5066018;28;20064;-42
2023/01/03 08:51:46;;;;;;;35.72;15.85;;;4.30;99.90;;;;;;5071271;28;20045;-42
2023/01/03 08:54:12;;;;;;;51.42;18.88;;;4.30;99.90;;;;;;5062517;28;20497;-40
2023/01/03 08:56:38;;;;;;;57.63;21.33;;;4.40;99.90;;;;;;5064157;28;20032;-42
2023/01/03 08:59:04;;;;;;;46.47;18.55;;;4.40;99.90;;;;;;5063703;28;20072;-42
2023/01/03 09:01:30;;;;;;;53.78;19.23;;;4.50;99.90;;;;;;5064781;28;20063;-42
2023/01/03 09:03:56;;;;;;;51.53;20.50;;;4.40;99.90;;;;;;5069025;28;20033;-42
2023/01/03 09:06:21;;;;;;;51.22;20.98;;;4.50;99.90;;;;;;5068859;28;20036;-43
2023/01/03 09:08:47;;;;;;;53.17;19.65;;;4.50;99.90;;;;;;5065518;28;20036;-39
2023/01/03 09:11:13;;;;;;;49.13;19.05;;;4.50;99.90;;;;;;5060596;28;20132;-40
2023/01/03 09:13:39;;;;;;;52.22;21.67;;;4.50;99.90;;;;;;5069162;28;20086;-43
2023/01/03 09:16:10;;;;;;;50.08;20.48;;;4.60;99.90;;;;;;5071133;28;20094;-42
2023/01/03 09:18:37;;;;;;;48.60;20.15;;;4.60;99.90;;;;;;5068679;28;20792;-44
2023/01/03 09:21:03;;;;;;;56.25;21.67;;;4.60;99.90;;;;;;5064839;28;20131;-40
2023/01/03 09:23:30;;;;;;;46.35;19.70;;;4.60;99.90;;;;;;5040518;28;20044;-40
2023/01/03 09:25:56;;;;;;;42.75;17.17;;;4.60;99.90;;;;;;5056065;28;20052;-38
2023/01/03 09:28:22;;;;;;;47.20;20.48;;;4.60;99.90;;;;;;5058190;28;20045;-40
2023/01/03 09:30:47;;;;;;;52.20;19.45;;;4.70;99.90;;;;;;5054941;28;20409;-41
2023/01/03 09:33:13;;;;;;;48.55;18.90;;;4.70;99.90;;;;;;5047742;28;20037;-40
2023/01/03 09:35:39;;;;;;;54.65;20.65;;;4.70;99.90;;;;;;5062026;28;20084;-40
2023/01/03 09:38:05;;;;;;;57.05;21.42;;;4.80;99.90;;;;;;5061317;28;20474;-42
2023/01/03 09:40:36;;;;;;;50.17;20.05;;;4.80;99.90;;;;;;5052770;28;20044;-39
2023/01/03 09:43:13;;;;;;;48.35;18.58;;;4.90;99.90;;;;;;5063830;28;20036;-43
2023/01/03 09:45:54;;;;;;;49.10;19.27;;;4.90;99.90;;;;;;5060944;28;20040;-42
2023/01/03 09:48:28;;;;;;;48.20;18.65;;;5.00;99.90;;;;;;5059690;28;20069;-40
2023/01/03 09:50:54;;;;;;;44.78;18.75;;;5.10;99.90;;;;;;5040435;28;20062;-38
2023/01/03 10:05:39;;;;;;;39.63;17.05;;;5.30;99.90;;;;;;4986701;28;20774;-39
2023/01/03 10:08:15;;;;;;;41.83;18.10;;;5.30;99.90;;;;;;5049204;28;20090;-40
2023/01/03 10:11:22;;;;;;;47.22;18.95;;;5.40;99.90;;;;;;5062809;28;20045;-39
2023/01/03 10:14:26;;;;;;;38.65;17.20;;;5.50;99.90;;;;;;5063394;28;20090;-39
2023/01/03 10:17:04;;;;;;;43.35;15.05;;;5.50;99.90;;;;;;5050751;28;20517;-41
2023/01/03 10:19:29;;;;;;;27.92;13.63;;;5.60;99.90;;;;;;5064965;28;20115;-39
2023/01/03 10:22:12;;;;;;;35.00;15.30;;;5.70;99.90;;;;;;5047187;28;20600;-41
2023/01/03 10:24:43;;;;;;;26.08;12.57;;;5.70;99.90;;;;;;5064486;28;20036;-43
2023/01/03 10:27:16;;;;;;;31.75;13.13;;;5.80;99.90;;;;;;5066547;28;20479;-43
2023/01/03 10:29:43;;;;;;;24.85;12.30;;;5.70;99.90;;;;;;5034050;28;20057;-41
2023/01/03 10:32:27;;;;;;;25.15;12.00;;;5.80;99.90;;;;;;5057643;28;20568;-41
2023/01/03 10:35:27;;;;;;;27.15;13.45;;;5.80;99.90;;;;;;5051841;28;20766;-39
2023/01/03 10:37:55;;;;;;;23.02;10.48;;;5.80;99.90;;;;;;5061076;28;20571;-42
2023/01/03 10:40:41;;;;;;;25.83;13.13;;;5.80;99.90;;;;;;5064284;28;20098;-39
2023/01/03 10:43:37;;;;;;;25.65;12.63;;;5.80;99.90;;;;;;5063424;28;20561;-40
2023/01/03 10:46:21;;;;;;;28.90;13.32;;;5.90;99.90;;;;;;5070834;28;20367;-40
2023/01/03 10:48:49;;;;;;;25.42;12.13;;;5.90;99.90;;;;;;5062272;28;20230;-39
2023/01/03 10:51:58;;;;;;;24.88;11.57;;;5.90;99.90;;;;;;5057341;28;20505;-42
2023/01/03 10:54:57;;;;;;;20.33;11.02;;;5.90;99.90;;;;;;5007092;28;20057;-43
2023/01/03 10:57:58;;;;;;;21.17;11.10;;;5.90;99.90;;;;;;4995350;28;20550;-41
2023/01/03 11:00:25;;;;;;;19.55;8.70;;;5.90;99.90;;;;;;5057902;28;20140;-39
2023/01/03 11:02:52;;;;;;;25.77;10.80;;;5.90;99.90;;;;;;5043985;28;20040;-40
2023/01/03 11:05:21;;;;;;;22.63;10.68;;;5.90;99.90;;;;;;5065522;28;20093;-43
2023/01/03 11:07:57;;;;;;;23.27;10.90;;;6.00;99.90;;;;;;5062038;28;20427;-43
2023/01/03 11:10:29;;;;;;;22.10;11.13;;;6.00;99.90;;;;;;5062534;28;20036;-44
2023/01/03 11:12:57;;;;;;;24.83;11.48;;;6.10;99.90;;;;;;5057480;28;20325;-40
2023/01/03 11:15:35;;;;;;;18.73;9.13;;;6.10;99.90;;;;;;5064747;28;20140;-39
2023/01/03 11:18:04;;;;;;;15.43;7.40;;;6.20;99.90;;;;;;5053857;28;20040;-40
2023/01/03 11:20:51;;;;;;;21.48;10.07;;;6.20;99.90;;;;;;5060735;28;20052;-41
2023/01/03 11:23:34;;;;;;;25.48;11.95;;;6.20;99.90;;;;;;5066281;28;20045;-41
2023/01/03 11:26:07;;;;;;;25.33;10.85;;;6.20;99.90;;;;;;5057629;28;20044;-43
2023/01/03 11:28:45;;;;;;;;;;;6.30;99.90;;;;;;5045198;28;20048;-38
2023/01/03 11:31:40;;;;;;;21.80;8.82;;;6.30;99.90;;;;;;5053649;28;19916;-42
2023/01/03 11:34:31;;;;;;;23.27;9.52;;;6.30;99.90;;;;;;5066398;28;20040;-40
2023/01/03 11:37:22;;;;;;;22.02;10.27;;;6.30;99.90;;;;;;5070746;28;20040;-39
2023/01/03 11:40:04;;;;;;;28.73;10.75;;;6.30;99.90;;;;;;5048316;28;20145;-40
2023/01/03 11:42:43;;;;;;;22.75;10.57;;;6.30;99.90;;;;;;5063721;28;20111;-41
2023/01/03 11:45:39;;;;;;;25.85;10.82;;;6.30;99.90;;;;;;5071595;28;20036;-41
2023/01/03 11:48:31;;;;;;;25.75;11.15;;;6.30;99.90;;;;;;5038578;28;20036;-42
2023/01/03 11:51:25;;;;;;;22.58;9.20;;;6.30;99.90;;;;;;5068870;28;20056;-42
2023/01/03 11:54:00;;;;;;;30.25;11.35;;;6.30;99.90;;;;;;5069502;28;20130;-43
2023/01/03 11:56:36;;;;;;;23.70;10.15;;;6.30;99.90;;;;;;5068712;28;20044;-42
2023/01/03 11:59:22;;;;;;;22.63;10.10;;;6.40;99.90;;;;;;5066859;28;20055;-42
2023/01/03 12:02:16;;;;;;;25.33;10.95;;;6.40;99.90;;;;;;5064539;28;20039;-43
2023/01/03 12:05:21;;;;;;;31.65;11.27;;;6.40;99.90;;;;;;5064627;28;20040;-42
2023/01/03 12:08:08;;;;;;;23.50;10.43;;;6.40;99.90;;;;;;5068646;28;20045;-41
2023/01/03 12:10:33;;;;;;;24.30;9.85;;;6.40;99.90;;;;;;5070867;28;20490;-43
2023/01/03 12:13:07;;;;;;;26.80;10.95;;;6.40;99.90;;;;;;5068408;28;20044;-43
2023/01/03 12:15:49;;;;;;;27.45;10.77;;;6.50;99.90;;;;;;5069838;28;20039;-41
2023/01/03 12:18:31;;;;;;;24.92;10.40;;;6.50;99.90;;;;;;5056275;28;20117;-40
2023/01/03 12:21:03;;;;;;;20.92;9.40;;;6.50;99.90;;;;;;5059876;28;20041;-44
2023/01/03 12:23:38;;;;;;;24.50;10.27;;;6.50;99.90;;;;;;5062703;28;20041;-41
2023/01/03 12:26:08;;;;;;;24.17;9.50;;;6.50;99.90;;;;;;5066908;28;20032;-40
2023/01/03 12:28:48;;;;;;;24.80;9.98;;;6.50;99.90;;;;;;5057608;28;20045;-41
2023/01/03 12:31:28;;;;;;;21.80;9.95;;;6.50;99.90;;;;;;5059765;28;20541;-44
2023/01/03 12:34:03;;;;;;;24.33;9.40;;;6.50;99.90;;;;;;5064174;28;20110;-40
2023/01/03 12:36:49;;;;;;;23.10;9.02;;;6.60;99.90;;;;;;5062985;28;20046;-43
2023/01/03 12:39:43;;;;;;;25.63;9.32;;;6.60;99.90;;;;;;5058572;28;20040;-40
2023/01/03 12:42:18;;;;;;;21.60;9.70;;;6.60;99.90;;;;;;5057164;28;20065;-40
2023/01/03 12:44:46;;;;;;;26.73;9.70;;;6.70;99.90;;;;;;5054391;28;20048;-41
2023/01/03 12:47:29;;;;;;;20.48;9.85;;;6.70;99.90;;;;;;5059685;28;20087;-42
2023/01/03 12:49:59;;;;;;;;;;;6.70;99.90;;;;;;5062803;28;20033;-39
2023/01/03 12:52:27;;;;;;;18.83;7.93;;;6.80;99.90;;;;;;5063099;28;19928;-40
2023/01/03 12:55:11;;;;;;;20.30;9.52;;;6.80;99.90;;;;;;5063430;28;20455;-42
2023/01/03 12:58:07;;;;;;;22.20;8.80;;;6.90;99.90;;;;;;5065646;28;20509;-41
2023/01/03 13:00:48;;;;;;;19.60;7.95;;;7.00;99.90;;;;;;5060221;28;20040;-45
2023/01/03 13:03:22;;;;;;;20.08;8.57;;;7.10;99.90;;;;;;5063661;28;20514;-43
2023/01/03 13:05:58;;;;;;;19.85;9.27;;;7.20;99.90;;;;;;5058831;28;20117;-43
2023/01/03 13:08:43;;;;;;;15.00;8.38;;;7.30;99.90;;;;;;5058012;28;20430;-44
2023/01/03 13:11:24;;;;;;;17.20;8.25;;;7.30;99.90;;;;;;5062953;28;20033;-45
2023/01/03 13:14:01;;;;;;;15.65;8.02;;;7.30;99.90;;;;;;5055106;28;20045;-46
2023/01/03 13:16:33;;;;;;;21.02;7.40;;;7.30;99.90;;;;;;5056902;28;20037;-39
2023/01/03 13:19:34;;;;;;;19.92;8.05;;;7.20;99.90;;;;;;5057154;28;20064;-38
2023/01/03 13:22:04;;;;;;;20.17;7.97;;;7.20;99.90;;;;;;4941761;28;20043;-38
2023/01/03 13:24:43;;;;;;;16.92;7.50;;;7.20;99.90;;;;;;5040304;28;20055;-38
2023/01/03 13:27:24;;;;;;;15.85;6.93;;;7.20;99.90;;;;;;5061510;28;20044;-38
2023/01/03 13:29:49;;;;;;;16.40;7.18;;;7.20;99.90;;;;;;5063559;28;20565;-37
2023/01/03 13:32:21;;;;;;;14.27;7.43;;;7.20;99.90;;;;;;5067689;28;20055;-38
2023/01/03 13:34:53;;;;;;;10.63;6.03;;;7.20;99.90;;;;;;5048422;28;20041;-37
2023/01/03 13:37:23;;;;;;;14.65;6.75;;;7.20;99.90;;;;;;5066890;28;20047;-37
2023/01/03 13:39:49;;;;;;;14.40;6.55;;;7.20;99.90;;;;;;5069005;28;20037;-37
2023/01/03 13:42:22;;;;;;;14.57;6.90;;;7.20;99.90;;;;;;5067393;28;20040;-38
2023/01/03 13:44:49;;;;;;;17.20;7.05;;;7.20;99.90;;;;;;5061762;28;20041;-38
2023/01/03 13:47:32;;;;;;;13.40;6.90;;;7.30;99.90;;;;;;5066432;28;20044;-38
2023/01/03 13:49:58;;;;;;;16.15;6.88;;;7.30;99.90;;;;;;5062305;28;20090;-37
2023/01/03 13:53:02;;;;;;;14.73;6.68;;;7.30;99.90;;;;;;5069609;28;20498;-38
2023/01/03 13:55:56;;;;;;;13.65;6.90;;;7.40;99.90;;;;;;5067353;28;20048;-38
2023/01/03 13:58:44;;;;;;;13.32;6.32;;;7.40;99.90;;;;;;5062267;28;20067;-37
2023/01/03 14:02:04;;;;;;;14.40;6.43;;;7.40;99.90;;;;;;5065377;28;20052;-37
2023/01/03 14:04:51;;;;;;;15.70;6.82;;;7.30;99.90;;;;;;5033427;28;20159;-37
2023/01/03 14:07:55;;;;;;;16.63;7.80;;;7.40;99.90;;;;;;5064285;28;20514;-40
2023/01/03 14:10:50;;;;;;;16.42;6.88;;;7.40;99.90;;;;;;5062757;28;20048;-39
2023/01/03 14:13:24;;;;;;;15.68;7.45;;;7.40;99.90;;;;;;5029091;28;20062;-39